createdAt,value
2024-01-30T00:01:09.563Z,5.00
2024-01-30T00:03:37.022Z,5.00
2024-01-30T00:06:08.017Z,4.90
2024-01-30T00:08:35.767Z,4.90
2024-01-30T00:11:03.157Z,4.90
2024-01-30T00:13:31.705Z,4.90
2024-01-30T00:15:59.247Z,4.90
2024-01-30T00:18:26.497Z,4.90
2024-01-30T00:20:55.652Z,4.90
2024-01-30T00:23:26.043Z,4.90
2024-01-30T00:25:53.288Z,4.90
2024-01-30T00:28:20.657Z,4.90
2024-01-30T00:30:48.611Z,4.90
2024-01-30T00:33:27.069Z,4.90
2024-01-30T00:35:54.389Z,4.90
2024-01-30T00:38:21.677Z,4.90
2024-01-30T00:40:48.927Z,4.90
2024-01-30T00:43:17.864Z,4.90
2024-01-30T00:45:45.610Z,4.80
2024-01-30T00:48:13.314Z,4.90
2024-01-30T00:50:41.036Z,4.90
2024-01-30T00:53:08.368Z,4.90
2024-01-30T00:55:36.333Z,4.90
2024-01-30T00:58:04.100Z,4.90
2024-01-30T01:00:32.311Z,4.90
2024-01-30T01:03:00.486Z,4.90
2024-01-30T01:05:30.820Z,4.90
2024-01-30T01:07:58.753Z,5.00
2024-01-30T01:10:26.191Z,5.00
2024-01-30T01:12:54.879Z,5.00
2024-01-30T01:15:23.370Z,5.00
2024-01-30T01:17:51.593Z,5.00
2024-01-30T01:20:18.964Z,5.00
2024-01-30T01:22:46.273Z,5.00
2024-01-30T01:25:13.956Z,5.00
2024-01-30T01:27:42.713Z,5.00
2024-01-30T01:30:12.971Z,5.00
2024-01-30T01:32:46.306Z,5.00
2024-01-30T01:35:13.781Z,5.00
2024-01-30T01:37:41.186Z,5.00
2024-01-30T01:40:09.492Z,5.00
2024-01-30T01:42:38.438Z,4.90
2024-01-30T01:45:06.799Z,5.00
2024-01-30T01:47:34.171Z,5.00
2024-01-30T01:50:01.688Z,5.00
2024-01-30T01:52:29.714Z,5.10
2024-01-30T01:54:56.988Z,5.10
2024-01-30T01:57:27.359Z,5.20
2024-01-30T01:59:54.753Z,5.20
2024-01-30T02:02:23.953Z,5.30
2024-01-30T02:04:51.552Z,5.30
2024-01-30T02:07:19.228Z,5.40
2024-01-30T02:09:46.589Z,5.40
2024-01-30T02:12:13.828Z,5.40
2024-01-30T02:14:48.441Z,5.50
2024-01-30T02:17:17.089Z,5.50
2024-01-30T02:19:44.489Z,5.50
2024-01-30T02:22:12.133Z,5.50
2024-01-30T02:24:39.480Z,5.50
2024-01-30T02:27:09.309Z,5.50
2024-01-30T02:29:36.782Z,5.60
2024-01-30T02:32:04.351Z,5.70
2024-01-30T02:34:31.870Z,5.80
2024-01-30T02:36:59.254Z,5.80
2024-01-30T02:39:26.667Z,5.80
2024-01-30T02:41:53.998Z,5.90
2024-01-30T02:44:21.810Z,5.90
2024-01-30T02:46:49.049Z,5.90
2024-01-30T02:49:16.360Z,6.00
2024-01-30T02:51:43.841Z,6.00
2024-01-30T02:54:11.070Z,6.00
2024-01-30T02:56:38.371Z,6.10
2024-01-30T02:59:05.632Z,6.10
2024-01-30T03:01:33.258Z,6.10
2024-01-30T03:04:00.877Z,6.10
2024-01-30T03:06:28.201Z,6.10
2024-01-30T03:08:56.700Z,6.10
2024-01-30T03:11:26.507Z,6.00
2024-01-30T03:13:53.789Z,6.00
2024-01-30T03:16:21.204Z,6.00
2024-01-30T03:18:50.823Z,6.00
2024-01-30T03:21:18.354Z,5.90
2024-01-30T03:23:45.828Z,5.90
2024-01-30T03:26:13.918Z,5.80
2024-01-30T03:28:41.516Z,5.80
2024-01-30T03:31:09.221Z,5.80
2024-01-30T03:33:38.361Z,5.70
2024-01-30T03:36:08.801Z,5.80
2024-01-30T03:38:38.937Z,5.70
2024-01-30T03:41:11.754Z,5.70
2024-01-30T03:43:39.629Z,5.70
2024-01-30T03:46:07.005Z,5.70
2024-01-30T03:48:34.532Z,5.70
2024-01-30T03:51:01.865Z,5.70
2024-01-30T03:53:29.073Z,5.70
2024-01-30T03:55:56.307Z,5.70
2024-01-30T03:58:23.755Z,5.70
2024-01-30T04:00:51.206Z,5.70
2024-01-30T04:03:18.690Z,5.70
2024-01-30T04:05:46.816Z,5.60
2024-01-30T04:08:14.159Z,5.60
2024-01-30T04:10:42.023Z,5.70
2024-01-30T04:13:12.406Z,5.70
2024-01-30T04:15:40.780Z,5.80
2024-01-30T04:18:08.201Z,5.80
2024-01-30T04:20:35.552Z,5.90
2024-01-30T04:23:02.767Z,5.90
2024-01-30T04:25:30.082Z,6.00
2024-01-30T04:27:57.504Z,6.00
2024-01-30T04:30:24.811Z,6.10
2024-01-30T04:32:52.035Z,6.10
2024-01-30T04:35:21.938Z,6.20
2024-01-30T04:37:49.147Z,6.30
2024-01-30T04:40:16.259Z,6.30
2024-01-30T04:42:43.424Z,6.30
2024-01-30T04:45:10.851Z,6.30
2024-01-30T04:47:38.034Z,6.40
2024-01-30T04:50:07.892Z,6.40
2024-01-30T04:52:35.270Z,6.40
2024-01-30T04:55:02.956Z,6.40
2024-01-30T04:57:30.339Z,6.40
2024-01-30T04:59:57.531Z,6.40
2024-01-30T05:02:24.814Z,6.40
2024-01-30T05:04:52.328Z,6.40
2024-01-30T05:07:19.731Z,6.30
2024-01-30T05:09:47.072Z,6.40
2024-01-30T05:12:14.323Z,6.40
2024-01-30T05:14:41.621Z,6.40
2024-01-30T05:17:13.853Z,6.40
2024-01-30T05:19:41.313Z,6.40
2024-01-30T05:22:08.738Z,6.40
2024-01-30T05:24:37.255Z,6.40
2024-01-30T05:27:04.659Z,6.40
2024-01-30T05:29:31.948Z,6.40
2024-01-30T05:31:59.338Z,6.40
2024-01-30T05:34:26.745Z,6.50
2024-01-30T05:36:54.104Z,6.50
2024-01-30T05:39:21.549Z,6.50
2024-01-30T05:41:48.934Z,6.50
2024-01-30T05:44:16.201Z,6.50
2024-01-30T05:46:43.510Z,6.50
2024-01-30T05:49:10.860Z,6.50
2024-01-30T05:51:38.171Z,6.50
2024-01-30T05:54:07.607Z,6.50
2024-01-30T05:56:34.896Z,6.50
2024-01-30T05:59:02.395Z,6.50
2024-01-30T06:01:30.509Z,6.50
2024-01-30T06:03:58.005Z,6.50
2024-01-30T06:06:25.443Z,6.50
2024-01-30T06:08:52.804Z,6.50
2024-01-30T06:11:20.051Z,6.50
2024-01-30T06:13:50.475Z,6.50
2024-01-30T06:16:17.929Z,6.60
2024-01-30T06:18:45.301Z,6.50
2024-01-30T06:21:13.410Z,6.50
2024-01-30T06:23:40.825Z,6.50
2024-01-30T06:26:09.108Z,6.50
2024-01-30T06:28:36.479Z,6.60
2024-01-30T06:31:08.074Z,6.60
2024-01-30T06:33:35.401Z,6.60
2024-01-30T06:36:02.690Z,6.60
2024-01-30T06:38:30.161Z,6.60
2024-01-30T06:40:57.517Z,6.60
2024-01-30T06:43:24.888Z,6.60
2024-01-30T06:45:53.096Z,6.60
2024-01-30T06:48:20.366Z,6.60
2024-01-30T06:50:49.098Z,6.70
2024-01-30T06:53:16.565Z,6.70
2024-01-30T06:55:43.829Z,6.70
2024-01-30T06:58:11.148Z,6.70
2024-01-30T07:00:38.986Z,6.70
2024-01-30T07:03:06.428Z,6.70
2024-01-30T07:05:34.164Z,6.70
2024-01-30T07:08:01.565Z,6.70
2024-01-30T07:10:28.900Z,6.70
2024-01-30T07:12:56.204Z,6.70
2024-01-30T07:15:23.441Z,6.70
2024-01-30T07:17:50.801Z,6.70
2024-01-30T07:20:18.674Z,6.70
2024-01-30T07:22:46.236Z,6.80
2024-01-30T07:25:13.522Z,6.80
2024-01-30T07:27:40.796Z,6.80
2024-01-30T07:30:08.734Z,6.80
2024-01-30T07:32:36.126Z,6.80
2024-01-30T07:35:08.362Z,6.80
2024-01-30T07:37:36.968Z,6.80
2024-01-30T07:40:05.697Z,6.90
2024-01-30T07:42:33.386Z,6.90
2024-01-30T07:45:01.645Z,6.90
2024-01-30T07:47:28.941Z,6.90
2024-01-30T07:49:56.339Z,6.90
2024-01-30T07:52:31.107Z,7.00
2024-01-30T07:54:58.610Z,7.00
2024-01-30T07:57:26.195Z,7.00
2024-01-30T07:59:53.576Z,7.00
2024-01-30T08:02:21.414Z,7.00
2024-01-30T08:04:50.906Z,7.00
2024-01-30T08:07:19.025Z,7.00
2024-01-30T08:09:46.440Z,7.20
2024-01-30T08:12:14.869Z,7.20
2024-01-30T08:14:42.556Z,7.30
2024-01-30T08:17:09.866Z,7.40
2024-01-30T08:19:37.363Z,7.50
2024-01-30T08:22:04.875Z,7.60
2024-01-30T08:24:32.119Z,7.70
2024-01-30T08:26:59.575Z,7.70
2024-01-30T08:29:27.050Z,7.80
2024-01-30T08:31:54.992Z,7.80
2024-01-30T08:34:22.531Z,7.80
2024-01-30T08:36:52.011Z,7.90
2024-01-30T08:39:19.512Z,8.00
2024-01-30T08:41:48.470Z,8.00
2024-01-30T08:44:24.561Z,8.00
2024-01-30T08:46:55.755Z,8.00
2024-01-30T08:49:27.244Z,8.00
2024-01-30T08:52:04.894Z,8.00
2024-01-30T08:54:41.082Z,8.10
2024-01-30T08:57:08.469Z,8.10
2024-01-30T08:59:36.117Z,8.10
2024-01-30T09:02:12.499Z,8.10
2024-01-30T09:04:43.550Z,8.10
2024-01-30T09:07:11.980Z,8.20
2024-01-30T09:09:42.677Z,8.20
2024-01-30T09:12:13.644Z,8.20
2024-01-30T09:15:06.062Z,8.30
2024-01-30T09:17:35.804Z,8.30
2024-01-30T09:20:03.806Z,8.30
2024-01-30T09:22:36.068Z,8.30
2024-01-30T09:25:05.953Z,8.40
2024-01-30T09:27:38.185Z,8.40
2024-01-30T09:30:06.627Z,8.40
2024-01-30T09:32:36.465Z,8.50
2024-01-30T09:35:04.576Z,8.50
2024-01-30T09:37:32.150Z,8.50
2024-01-30T09:40:01.829Z,8.60
2024-01-30T09:42:37.450Z,8.60
2024-01-30T09:45:25.305Z,8.60
2024-01-30T09:48:01.312Z,8.60
2024-01-30T09:50:29.422Z,8.60
2024-01-30T09:53:06.874Z,8.60
2024-01-30T09:55:36.005Z,8.60
2024-01-30T09:58:12.300Z,8.60
2024-01-30T10:00:42.630Z,8.60
2024-01-30T10:03:11.306Z,8.60
2024-01-30T10:05:42.620Z,8.60
2024-01-30T10:08:12.902Z,8.60
2024-01-30T10:10:44.599Z,8.60
2024-01-30T10:13:26.904Z,8.60
2024-01-30T10:16:04.363Z,8.70
2024-01-30T10:18:37.131Z,8.70
2024-01-30T10:21:17.637Z,8.70
2024-01-30T10:23:54.565Z,8.70
2024-01-30T10:26:38.855Z,8.60
2024-01-30T10:29:16.857Z,8.60
2024-01-30T10:32:08.100Z,8.60
2024-01-30T10:34:36.085Z,8.60
2024-01-30T10:37:14.269Z,8.60
2024-01-30T10:39:47.973Z,8.60
2024-01-30T10:42:28.902Z,8.60
2024-01-30T10:45:19.066Z,8.60
2024-01-30T10:48:05.440Z,8.60
2024-01-30T10:53:24.913Z,8.60
2024-01-30T10:55:55.933Z,8.60
2024-01-30T10:58:24.050Z,8.60
2024-01-30T11:00:52.929Z,8.50
2024-01-30T11:03:25.871Z,8.50
2024-01-30T11:06:05.947Z,8.50
2024-01-30T11:08:36.880Z,8.50
2024-01-30T11:11:20.814Z,8.40
2024-01-30T11:13:52.114Z,8.40
2024-01-30T11:16:48.276Z,8.40
2024-01-30T11:19:32.513Z,8.40
2024-01-30T11:22:14.390Z,8.40
2024-01-30T11:24:55.746Z,8.40
2024-01-30T11:27:23.630Z,8.40
2024-01-30T11:29:54.941Z,8.40
2024-01-30T11:32:30.971Z,8.40
2024-01-30T11:35:13.637Z,8.40
2024-01-30T11:37:50.647Z,8.40
2024-01-30T11:40:21.487Z,8.30
2024-01-30T11:42:53.169Z,8.30
2024-01-30T11:45:23.659Z,8.30
2024-01-30T11:47:51.377Z,8.20
2024-01-30T11:50:19.536Z,8.20
2024-01-30T11:52:54.279Z,8.20
2024-01-30T11:55:25.466Z,8.20
2024-01-30T11:57:59.833Z,8.20
2024-01-30T12:00:32.444Z,8.10
2024-01-30T12:03:02.115Z,8.10
2024-01-30T12:05:30.627Z,8.10
2024-01-30T12:08:06.116Z,8.10
2024-01-30T12:10:33.858Z,8.10
2024-01-30T12:13:02.452Z,8.10
2024-01-30T12:15:30.362Z,8.20
2024-01-30T12:18:08.685Z,8.20
2024-01-30T12:20:36.426Z,8.20
2024-01-30T12:23:04.053Z,8.20
2024-01-30T12:25:31.745Z,8.20
2024-01-30T12:27:59.445Z,8.20
2024-01-30T12:30:26.782Z,8.20
2024-01-30T12:32:54.136Z,8.20
2024-01-30T12:35:22.992Z,8.20
2024-01-30T12:37:51.643Z,8.20
2024-01-30T12:40:20.168Z,8.20
2024-01-30T12:42:50.993Z,8.10
2024-01-30T12:45:23.903Z,8.10
2024-01-30T12:47:51.881Z,8.10
2024-01-30T12:50:20.015Z,8.10
2024-01-30T12:52:49.846Z,8.10
2024-01-30T12:55:19.012Z,8.10
2024-01-30T12:57:47.242Z,8.00
2024-01-30T13:00:14.918Z,8.00
2024-01-30T13:02:46.041Z,8.10
2024-01-30T13:05:14.210Z,8.00
2024-01-30T13:07:44.301Z,8.00
2024-01-30T13:10:12.037Z,8.00
2024-01-30T13:12:39.867Z,8.00
2024-01-30T13:15:07.676Z,8.00
2024-01-30T13:17:35.244Z,8.00
2024-01-30T13:20:08.044Z,8.00
2024-01-30T13:22:41.490Z,8.00
2024-01-30T13:25:09.270Z,8.00
2024-01-30T13:27:39.205Z,8.00
2024-01-30T13:30:10.687Z,8.00
2024-01-30T13:32:42.708Z,8.00
2024-01-30T13:35:13.120Z,8.00
2024-01-30T13:37:40.731Z,8.00
2024-01-30T13:40:10.866Z,8.00
2024-01-30T13:42:40.290Z,8.00
2024-01-30T13:45:07.790Z,8.00
2024-01-30T13:47:36.235Z,8.00
2024-01-30T13:50:07.411Z,8.00
2024-01-30T13:52:41.522Z,8.00
2024-01-30T13:55:12.886Z,8.00
2024-01-30T13:57:40.443Z,8.00
2024-01-30T14:00:08.575Z,8.00
2024-01-30T14:02:41.619Z,8.00
2024-01-30T14:05:10.213Z,8.00
2024-01-30T14:07:40.785Z,8.00
2024-01-30T14:10:11.711Z,8.00
2024-01-30T14:12:40.869Z,8.00
2024-01-30T14:15:19.542Z,8.00
2024-01-30T14:17:54.950Z,8.00
2024-01-30T14:20:22.390Z,8.00
2024-01-30T14:22:49.810Z,8.00
2024-01-30T14:25:17.956Z,8.00
2024-01-30T14:27:45.504Z,8.00
2024-01-30T14:30:13.356Z,8.00
2024-01-30T14:32:42.662Z,8.00
2024-01-30T14:35:11.512Z,7.90
2024-01-30T14:37:39.454Z,7.90
2024-01-30T14:40:11.496Z,7.80
2024-01-30T14:42:39.135Z,7.80
2024-01-30T14:45:09.275Z,7.80
2024-01-30T14:47:37.397Z,7.80
2024-01-30T14:50:08.713Z,7.80
2024-01-30T14:52:38.695Z,7.70
2024-01-30T14:55:06.794Z,7.60
2024-01-30T14:57:36.143Z,7.60
2024-01-30T15:00:04.339Z,7.60
2024-01-30T15:02:31.835Z,7.50
2024-01-30T15:04:59.501Z,7.50
2024-01-30T15:07:33.643Z,7.50
2024-01-30T15:10:07.895Z,7.50
2024-01-30T15:12:35.339Z,7.40
2024-01-30T15:15:02.954Z,7.30
2024-01-30T15:17:30.476Z,7.30
2024-01-30T15:19:59.856Z,7.20
2024-01-30T15:22:27.761Z,7.20
2024-01-30T15:24:55.295Z,7.20
2024-01-30T15:27:25.799Z,7.20
2024-01-30T15:29:54.273Z,7.10
2024-01-30T15:32:24.150Z,7.00
2024-01-30T15:34:52.059Z,7.00
2024-01-30T15:37:19.606Z,7.00
2024-01-30T15:39:46.938Z,7.00
2024-01-30T15:42:15.582Z,7.00
2024-01-30T15:44:42.971Z,7.00
2024-01-30T15:47:12.496Z,7.00
2024-01-30T15:49:46.865Z,6.90
2024-01-30T15:52:21.215Z,6.90
2024-01-30T15:54:50.385Z,6.90
2024-01-30T15:57:21.202Z,6.90
2024-01-30T15:59:51.108Z,6.90
2024-01-30T16:02:23.533Z,6.90
2024-01-30T16:04:52.368Z,6.80
2024-01-30T16:07:22.026Z,6.80
2024-01-30T16:09:50.333Z,6.70
2024-01-30T16:12:20.405Z,6.70
2024-01-30T16:14:52.663Z,6.70
2024-01-30T16:17:36.978Z,6.70
2024-01-30T16:20:18.649Z,6.60
2024-01-30T16:22:55.829Z,6.60
2024-01-30T16:25:26.587Z,6.60
2024-01-30T16:27:58.282Z,6.50
2024-01-30T16:30:28.710Z,6.50
2024-01-30T16:33:00.564Z,6.50
2024-01-30T16:35:45.150Z,6.40
2024-01-30T16:38:19.098Z,6.40
2024-01-30T16:40:52.867Z,6.40
2024-01-30T16:43:33.483Z,6.40
2024-01-30T16:46:08.586Z,6.40
2024-01-30T16:48:43.922Z,6.30
2024-01-30T16:51:13.393Z,6.30
2024-01-30T16:53:45.442Z,6.30
2024-01-30T16:56:13.198Z,6.30
2024-01-30T16:58:48.128Z,6.30
2024-01-30T17:01:18.630Z,6.30
2024-01-30T17:03:48.808Z,6.30
2024-01-30T17:06:22.568Z,6.30
2024-01-30T17:09:17.615Z,6.30
2024-01-30T17:12:01.563Z,6.30
2024-01-30T17:14:56.440Z,6.20
2024-01-30T17:17:32.069Z,6.20
2024-01-30T17:20:25.762Z,6.20
2024-01-30T17:22:56.151Z,6.20
2024-01-30T17:25:36.604Z,6.20
2024-01-30T17:28:11.302Z,6.20
2024-01-30T17:30:47.216Z,6.20
2024-01-30T17:33:17.299Z,6.20
2024-01-30T17:35:51.166Z,6.20
2024-01-30T17:38:18.833Z,6.10
2024-01-30T17:41:12.304Z,6.10
2024-01-30T17:43:43.117Z,6.10
2024-01-30T17:46:16.257Z,6.10
2024-01-30T17:48:54.158Z,6.10
2024-01-30T17:51:29.910Z,6.10
2024-01-30T17:54:01.910Z,6.00
2024-01-30T17:56:31.946Z,6.00
2024-01-30T17:59:05.351Z,6.00
2024-01-30T18:01:39.938Z,6.00
2024-01-30T18:04:13.267Z,6.00
2024-01-30T18:07:01.543Z,6.00
2024-01-30T18:09:29.190Z,5.90
2024-01-30T18:11:59.503Z,5.90
2024-01-30T18:14:33.089Z,5.90
2024-01-30T18:17:05.994Z,5.90
2024-01-30T18:19:52.376Z,5.90
2024-01-30T18:22:33.082Z,5.90
2024-01-30T18:25:10.020Z,5.90
2024-01-30T18:27:57.121Z,5.90
2024-01-30T18:30:29.368Z,5.90
2024-01-30T18:33:16.709Z,5.90
2024-01-30T18:35:48.697Z,5.90
2024-01-30T18:38:16.485Z,5.90
2024-01-30T18:40:49.399Z,5.80
2024-01-30T18:43:20.082Z,5.80
2024-01-30T18:46:02.472Z,5.70
2024-01-30T18:48:48.318Z,5.70
2024-01-30T18:51:32.419Z,5.70
2024-01-30T18:54:09.280Z,5.70
2024-01-30T18:56:43.585Z,5.60
2024-01-30T18:59:24.236Z,5.60
2024-01-30T19:01:51.771Z,5.60
2024-01-30T19:04:22.106Z,5.60
2024-01-30T19:06:53.143Z,5.60
2024-01-30T19:09:23.110Z,5.60
2024-01-30T19:11:54.072Z,5.50
2024-01-30T19:14:22.920Z,5.60
2024-01-30T19:16:59.949Z,5.60
2024-01-30T19:19:28.732Z,5.60
2024-01-30T19:22:19.851Z,5.60
2024-01-30T19:25:07.575Z,5.60
2024-01-30T19:27:40.571Z,5.50
2024-01-30T19:30:11.246Z,5.50
2024-01-30T19:32:39.456Z,5.50
2024-01-30T19:35:18.399Z,5.50
2024-01-30T19:37:47.166Z,5.50
2024-01-30T19:40:19.952Z,5.40
2024-01-30T19:42:49.620Z,5.30
2024-01-30T19:45:22.844Z,5.30
2024-01-30T19:47:50.527Z,5.30
2024-01-30T19:50:26.366Z,5.20
2024-01-30T19:52:54.099Z,5.10
2024-01-30T19:55:35.778Z,5.10
2024-01-30T19:58:15.099Z,5.10
2024-01-30T20:00:55.843Z,5.10
2024-01-30T20:09:05.450Z,5.00
2024-01-30T20:11:58.887Z,5.00
2024-01-30T20:14:36.447Z,5.00
2024-01-30T20:17:30.127Z,5.00
2024-01-30T20:22:59.566Z,5.00
2024-01-30T20:25:53.589Z,5.00
2024-01-30T20:28:22.394Z,5.00
2024-01-30T20:30:58.796Z,5.00
2024-01-30T20:33:34.811Z,5.00
2024-01-30T20:36:22.944Z,5.00
2024-01-30T20:39:10.773Z,5.00
2024-01-30T20:42:02.569Z,5.00
2024-01-30T20:44:37.429Z,5.00
2024-01-30T20:47:14.816Z,4.90
2024-01-30T20:50:07.936Z,4.90
2024-01-30T20:52:53.940Z,4.90
2024-01-30T20:55:39.301Z,4.90
2024-01-30T20:58:22.458Z,4.80
2024-01-30T21:00:58.968Z,4.80
2024-01-30T21:03:37.332Z,4.80
2024-01-30T21:06:13.622Z,4.80
2024-01-30T21:09:15.996Z,4.70
2024-01-30T21:11:47.100Z,4.70
2024-01-30T21:14:37.159Z,4.70
2024-01-30T21:17:23.322Z,4.70
2024-01-30T21:20:39.305Z,4.70
2024-01-30T21:23:26.057Z,4.70
2024-01-30T21:26:30.769Z,4.70
2024-01-30T21:29:04.173Z,4.70
2024-01-30T21:31:48.671Z,4.80
2024-01-30T21:34:30.238Z,4.90
2024-01-30T21:37:22.205Z,4.90
2024-01-30T21:40:13.690Z,4.80
2024-01-30T21:42:53.992Z,4.90
2024-01-30T21:45:35.935Z,4.90
2024-01-30T21:48:27.111Z,4.90
2024-01-30T21:51:05.884Z,4.90
2024-01-30T21:53:57.548Z,4.90
2024-01-30T21:56:47.270Z,5.00
2024-01-30T21:59:34.743Z,5.00
2024-01-30T22:02:35.249Z,5.00
2024-01-30T22:05:09.914Z,5.00
2024-01-30T22:08:00.473Z,5.00
2024-01-30T22:10:49.784Z,5.10
2024-01-30T22:13:38.846Z,5.10
2024-01-30T22:16:38.385Z,5.10
2024-01-30T22:19:16.285Z,5.10
2024-01-30T22:21:55.885Z,5.10
2024-01-30T22:24:49.336Z,5.10
2024-01-30T22:28:23.108Z,5.20
2024-01-30T22:31:21.371Z,5.20
2024-01-30T22:34:16.863Z,5.20
2024-01-30T22:37:09.186Z,5.10
2024-01-30T22:43:08.447Z,5.10
2024-01-30T22:46:21.087Z,5.10
2024-01-30T22:49:51.386Z,5.00
2024-01-30T22:52:57.127Z,5.00
2024-01-30T22:55:48.662Z,5.00
2024-01-30T22:58:56.533Z,4.90
2024-01-30T23:01:49.552Z,5.00
2024-01-30T23:04:36.251Z,5.00
2024-01-30T23:07:17.977Z,5.00
2024-01-30T23:10:21.114Z,5.00
2024-01-30T23:13:26.461Z,5.00
2024-01-30T23:16:17.886Z,5.00
2024-01-30T23:22:27.783Z,5.00
2024-01-30T23:25:25.647Z,5.00
2024-01-30T23:29:57.820Z,5.00
2024-01-30T23:33:08.361Z,5.00
2024-01-30T23:36:53.565Z,5.00
2024-01-30T23:40:03.384Z,5.00
2024-01-30T23:42:52.191Z,5.00
2024-01-30T23:45:32.656Z,5.00
2024-01-30T23:48:06.682Z,5.00
2024-01-30T23:50:41.703Z,5.00
2024-01-30T23:56:53.559Z,5.00
2024-01-30T23:59:44.737Z,5.00
